| time (UTC) | temp F | wind direction | speed knots | gust knots | rain 1hr in | rain 24hr in | rain mn in | humidity % | barometer mb |
| 20260504232007 | 70 | 360 | 0.0 | 1.7 | 0.00 | 0.00 | 0.00 | 55 | 1011.5 |
| 20260504231522 | 70 | 360 | 0.0 | 2.6 | 0.00 | 0.00 | 0.00 | 55 | 1011.5 |
| 20260504231011 | 71 | 360 | 0.0 | 2.6 | 0.00 | 0.00 | 0.00 | 54 | 1011.4 |
| 20260504230507 | 71 | 360 | 0.9 | 1.7 | 0.00 | 0.00 | 0.00 | 53 | 1011.4 |
| 20260504230024 | 71 | 360 | 0.0 | 1.7 | 0.00 | 0.00 | 0.00 | 52 | 1011.3 |
| 20260504225508 | 72 | 360 | 0.0 | 1.7 | 0.00 | 0.00 | 0.00 | 51 | 1011.4 |
| 20260504225003 | 72 | 360 | 0.0 | 2.6 | 0.00 | 0.00 | 0.00 | 49 | 1011.4 |
| 20260504224508 | 72 | 360 | 0.0 | 2.6 | 0.00 | 0.00 | 0.00 | 46 | 1011.4 |
| 20260504224003 | 72 | 360 | 0.0 | 2.6 | 0.00 | 0.00 | 0.00 | 39 | 1011.4 |
| 20260504223507 | 73 | 360 | 0.9 | 4.3 | 0.00 | 0.00 | 0.00 | 39 | 1011.3 |
| 20260504223014 | 73 | 360 | 0.9 | 4.3 | 0.00 | 0.00 | 0.00 | 39 | 1011.3 |
| 20260504222504 | 73 | 360 | 0.9 | 3.5 | 0.00 | 0.00 | 0.00 | 38 | 1011.3 |
| 20260504222008 | 73 | 360 | 0.0 | 3.5 | 0.00 | 0.00 | 0.00 | 38 | 1011.3 |
| 20260504221519 | 73 | 360 | 0.0 | 3.5 | 0.00 | 0.00 | 0.00 | 38 | 1011.4 |
| 20260504221006 | 73 | 360 | 0.9 | 3.5 | 0.00 | 0.00 | 0.00 | 39 | 1011.3 |
| 20260504220509 | 73 | 360 | 0.9 | 2.6 | 0.00 | 0.00 | 0.00 | 38 | 1011.3 |
| 20260504220024 | 73 | 360 | 0.9 | 2.6 | 0.00 | 0.00 | 0.00 | 38 | 1011.3 |
| 20260504215508 | 74 | 360 | 0.9 | 3.5 | 0.00 | 0.00 | 0.00 | 38 | 1011.4 |
| 20260504215011 | 73 | 360 | 0.9 | 3.5 | 0.00 | 0.00 | 0.00 | 37 | 1011.4 |
| 20260504214528 | 74 | 360 | 0.9 | 3.5 | 0.00 | 0.00 | 0.00 | 37 | 1011.4 |
| 20260504214007 | 74 | 360 | 0.9 | 5.2 | 0.00 | 0.00 | 0.00 | 37 | 1011.5 |
| 20260504213504 | 74 | 360 | 0.9 | 5.2 | 0.00 | 0.00 | 0.00 | 36 | 1011.5 |
| 20260504213029 | 74 | 224 | 1.7 | 4.3 | 0.00 | 0.00 | 0.00 | 36 | 1011.5 |
| 20260504212504 | 74 | 360 | 1.7 | 4.3 | 0.00 | 0.00 | 0.00 | 36 | 1011.5 |
| 20260504212004 | 74 | 360 | 0.9 | 4.3 | 0.00 | 0.00 | 0.00 | 36 | 1011.5 |
| 20260504211516 | 74 | 360 | 0.9 | 5.2 | 0.00 | 0.00 | 0.00 | 35 | 1011.5 |
| 20260504211004 | 74 | 360 | 1.7 | 5.2 | 0.00 | 0.00 | 0.00 | 35 | 1011.4 |
| 20260504210511 | 74 | 360 | 1.7 | 4.3 | 0.00 | 0.00 | 0.00 | 35 | 1011.5 |
| 20260504210023 | 74 | 360 | 1.7 | 4.3 | 0.00 | 0.00 | 0.00 | 35 | 1011.5 |
| 20260504205508 | 74 | 360 | 1.7 | 4.3 | 0.00 | 0.00 | 0.00 | 36 | 1011.5 |
| 20260504205007 | 74 | 360 | 1.7 | 4.3 | 0.00 | 0.00 | 0.00 | 35 | 1011.4 |
| 20260504204524 | 74 | 360 | 0.9 | 4.3 | 0.00 | 0.00 | 0.00 | 36 | 1011.5 |
| 20260504204008 | 74 | 360 | 0.9 | 7.8 | 0.00 | 0.00 | 0.00 | 35 | 1011.5 |
| 20260504203509 | 75 | 360 | 2.6 | 7.8 | 0.00 | 0.00 | 0.00 | 35 | 1011.5 |
| 20260504203026 | 75 | 360 | 1.7 | 5.2 | 0.00 | 0.00 | 0.00 | 35 | 1011.6 |
| 20260504202512 | 75 | 155 | 1.7 | 4.3 | 0.00 | 0.00 | 0.00 | 35 | 1011.6 |
| 20260504202012 | 76 | 219 | 0.9 | 7.0 | 0.00 | 0.00 | 0.00 | 35 | 1011.6 |
| 20260504201516 | 76 | 212 | 0.9 | 7.0 | 0.00 | 0.00 | 0.00 | 35 | 1011.7 |
| 20260504201006 | 77 | 192 | 1.7 | 4.3 | 0.00 | 0.00 | 0.00 | 34 | 1011.7 |
| 20260504200506 | 77 | 227 | 0.9 | 4.3 | 0.00 | 0.00 | 0.00 | 33 | 1011.7 |
| 20260504200020 | 77 | 237 | 0.9 | 5.2 | 0.00 | 0.00 | 0.00 | 33 | 1011.7 |
| 20260504195507 | 77 | 257 | 0.9 | 5.2 | 0.00 | 0.00 | 0.00 | 33 | 1011.7 |
| 20260504195007 | 78 | 230 | 1.7 | 4.3 | 0.00 | 0.00 | 0.00 | 33 | 1011.8 |
| 20260504194526 | 78 | 263 | 0.9 | 3.5 | 0.00 | 0.00 | 0.00 | 32 | 1011.9 |
| 20260504194007 | 78 | 232 | 0.9 | 3.5 | 0.00 | 0.00 | 0.00 | 32 | 1011.9 |
| 20260504193508 | 79 | 188 | 0.9 | 4.3 | 0.00 | 0.00 | 0.00 | 33 | 1011.9 |
| 20260504193027 | 79 | 178 | 0.9 | 4.3 | 0.00 | 0.00 | 0.00 | 32 | 1012.0 |
| 20260504192508 | 79 | 215 | 0.9 | 4.3 | 0.00 | 0.00 | 0.00 | 32 | 1012.1 |
| 20260504192008 | 79 | 177 | 0.0 | 6.1 | 0.00 | 0.00 | 0.00 | 33 | 1012.1 |
| 20260504191546 | 78 | 174 | 0.9 | 6.1 | 0.00 | 0.00 | 0.00 | 33 | 1012.1 |
| 20260504191009 | 78 | 217 | 1.7 | 5.2 | 0.00 | 0.00 | 0.00 | 33 | 1012.3 |
| 20260504190509 | 78 | 206 | 0.9 | 6.1 | 0.00 | 0.00 | 0.00 | 33 | 1012.4 |
| 20260504190021 | 78 | 121 | 0.9 | 7.0 | 0.00 | 0.00 | 0.00 | 33 | 1012.3 |
| 20260504185508 | 78 | 232 | 0.9 | 7.0 | 0.00 | 0.00 | 0.00 | 33 | 1012.4 |
| 20260504185007 | 77 | 219 | 0.0 | 4.3 | 0.00 | 0.00 | 0.00 | 33 | 1012.5 |
| 20260504184538 | 76 | 253 | 0.9 | 5.2 | 0.00 | 0.00 | 0.00 | 34 | 1012.5 |
| 20260504184013 | 76 | 325 | 1.7 | 5.2 | 0.00 | 0.00 | 0.00 | 33 | 1012.5 |
| 20260504183508 | 76 | 150 | 0.9 | 4.3 | 0.00 | 0.00 | 0.00 | 32 | 1012.5 |
| 20260504183024 | 77 | 120 | 0.9 | 4.3 | 0.00 | 0.00 | 0.00 | 33 | 1012.7 |
| 20260504182517 | 76 | 360 | 1.7 | 4.3 | 0.00 | 0.00 | 0.00 | 33 | 1012.7 |
| 20260504182003 | 77 | 128 | 0.9 | 4.3 | 0.00 | 0.00 | 0.00 | 33 | 1012.8 |
| 20260504181510 | 77 | 360 | 1.7 | 4.3 | 0.00 | 0.00 | 0.00 | 33 | 1012.8 |
| 20260504181005 | 77 | 360 | 0.9 | 3.5 | 0.00 | 0.00 | 0.00 | 34 | 1012.9 |
| 20260504180507 | 76 | 360 | 0.9 | 4.3 | 0.00 | 0.00 | 0.00 | 34 | 1013.0 |
| 20260504180016 | 76 | 211 | 0.9 | 4.3 | 0.00 | 0.00 | 0.00 | 34 | 1013.1 |
| 20260504175502 | 76 | 179 | 0.9 | 3.5 | 0.00 | 0.00 | 0.00 | 34 | 1013.0 |
| 20260504175003 | 77 | 192 | 0.9 | 5.2 | 0.00 | 0.00 | 0.00 | 34 | 1013.1 |
| 20260504174503 | 76 | 170 | 0.9 | 5.2 | 0.00 | 0.00 | 0.00 | 34 | 1013.2 |
| 20260504174003 | 76 | 50 | 0.9 | 4.3 | 0.00 | 0.00 | 0.00 | 33 | 1013.1 |
| 20260504173502 | 76 | 166 | 0.9 | 4.3 | 0.00 | 0.00 | 0.00 | 34 | 1013.2 |
| 20260504173011 | 75 | 182 | 0.0 | 6.1 | 0.00 | 0.00 | 0.00 | 34 | 1013.3 |
| 20260504172503 | 75 | 360 | 0.9 | 6.1 | 0.00 | 0.00 | 0.00 | 35 | 1013.3 |
| 20260504172004 | 75 | 210 | 0.9 | 3.5 | 0.00 | 0.00 | 0.00 | 33 | 1013.4 |
| 20260504171506 | 75 | 201 | 1.7 | 6.1 | 0.00 | 0.00 | 0.00 | 35 | 1013.6 |
| 20260504171004 | 75 | 201 | 1.7 | 6.1 | 0.00 | 0.00 | 0.00 | 35 | 1013.6 |
| 20260504170509 | 75 | 248 | 0.9 | 5.2 | 0.00 | 0.00 | 0.00 | 34 | 1013.5 |
| 20260504151003 | 71 | 360 | 0.9 | 7.0 | 0.00 | 0.00 | 0.00 | 45 | 1014.3 |
| 20260504150506 | 71 | 246 | 0.9 | 7.0 | 0.00 | 0.00 | 0.00 | 46 | 1014.3 |
| 20260504141006 | 66 | 360 | 0.0 | 5.2 | 0.00 | 0.00 | 0.00 | 56 | 1014.9 |
| 20260504140504 | 66 | 360 | 0.9 | 3.5 | 0.00 | 0.00 | 0.00 | 57 | 1014.9 |
| 20260504130507 | 58 | 360 | 0.9 | 2.6 | 0.00 | 0.00 | 0.00 | 73 | 1015.7 |
| 20260504110507 | 51 | 58 | 0.0 | 0.0 | 0.00 | 0.00 | 0.00 | 84 | 1016.4 |
| 20260504100506 | 50 | 103 | 0.0 | 0.9 | 0.00 | 0.00 | 0.00 | 84 | 1016.1 |
| 20260504082006 | 49 | 172 | 0.0 | 1.7 | 0.00 | 0.00 | 0.00 | 83 | 1016.4 |
| 20260504081509 | 48 | 172 | 0.0 | 1.7 | 0.00 | 0.00 | 0.00 | 82 | 1016.4 |
| 20260504081005 | 48 | 172 | 0.0 | 1.7 | 0.00 | 0.00 | 0.00 | 82 | 1016.4 |
| 20260504080503 | 48 | 172 | 0.0 | 1.7 | 0.00 | 0.00 | 0.00 | 82 | 1016.4 |
| 20260504050508 | 45 | 5 | 0.0 | 1.7 | 0.00 | 0.00 | 0.00 | 72 | 1016.5 |
| 20260504050024 | 45 | 5 | 0.0 | 1.7 | 0.00 | 0.00 | 0.00 | 72 | 1016.5 |
| 20260504045507 | 45 | 5 | 0.0 | 0.9 | 0.00 | 0.00 | 0.00 | 72 | 1016.5 |
| 20260504045007 | 45 | 5 | 0.0 | 0.0 | 0.00 | 0.00 | 0.00 | 72 | 1016.5 |
| 20260504044507 | 45 | 5 | 0.0 | 0.0 | 0.00 | 0.00 | 0.00 | 71 | 1016.4 |
| 20260504044006 | 45 | 5 | 0.0 | 0.0 | 0.00 | 0.00 | 0.00 | 71 | 1016.5 |
| 20260504043504 | 45 | 5 | 0.0 | 0.9 | 0.00 | 0.00 | 0.00 | 71 | 1016.4 |
| 20260504043015 | 45 | 5 | 0.0 | 0.9 | 0.00 | 0.00 | 0.00 | 70 | 1016.4 |
| 20260504042506 | 45 | 5 | 0.0 | 0.9 | 0.00 | 0.00 | 0.00 | 69 | 1016.4 |
| 20260504042008 | 45 | 5 | 0.0 | 0.9 | 0.00 | 0.00 | 0.00 | 69 | 1016.4 |
| 20260504041518 | 46 | 5 | 0.0 | 0.9 | 0.00 | 0.00 | 0.00 | 69 | 1016.3 |
| 20260504041008 | 46 | 5 | 0.0 | 0.9 | 0.00 | 0.00 | 0.00 | 69 | 1016.2 |
| 20260504040508 | 46 | 5 | 0.0 | 0.9 | 0.00 | 0.00 | 0.00 | 69 | 1016.1 |
| 20260504040022 | 46 | 5 | 0.0 | 0.9 | 0.00 | 0.00 | 0.00 | 69 | 1016.1 |
| 20260504035509 | 46 | 5 | 0.0 | 0.9 | 0.00 | 0.00 | 0.00 | 69 | 1016.1 |
| 20260504035007 | 46 | 5 | 0.0 | 0.0 | 0.00 | 0.00 | 0.00 | 68 | 1016.1 |
| 20260504034529 | 46 | 5 | 0.0 | 0.0 | 0.00 | 0.00 | 0.00 | 68 | 1016.1 |
| 20260504034010 | 46 | 5 | 0.0 | 0.0 | 0.00 | 0.00 | 0.00 | 67 | 1016.0 |
| 20260504033511 | 46 | 5 | 0.0 | 0.0 | 0.00 | 0.00 | 0.00 | 67 | 1016.0 |
| 20260504033009 | 46 | 5 | 0.0 | 0.0 | 0.00 | 0.00 | 0.00 | 67 | 1016.0 |
| 20260504032504 | 46 | 5 | 0.0 | 0.0 | 0.00 | 0.00 | 0.00 | 67 | 1016.0 |
| 20260504032007 | 46 | 5 | 0.0 | 0.0 | 0.00 | 0.00 | 0.00 | 66 | 1016.0 |
| 20260504031516 | 46 | 5 | 0.0 | 0.0 | 0.00 | 0.00 | 0.00 | 66 | 1015.9 |
| 20260504031007 | 47 | 5 | 0.0 | 0.0 | 0.00 | 0.00 | 0.00 | 66 | 1015.9 |
| 20260504030504 | 47 | 5 | 0.0 | 0.0 | 0.00 | 0.00 | 0.00 | 66 | 1016.0 |
| 20260504030003 | 47 | 5 | 0.0 | 0.0 | 0.00 | 0.00 | 0.00 | 65 | 1016.0 |
| 20260504025504 | 47 | 5 | 0.0 | 0.0 | 0.00 | 0.00 | 0.00 | 65 | 1016.0 |
| 20260504025004 | 47 | 5 | 0.0 | 0.9 | 0.00 | 0.00 | 0.00 | 65 | 1016.0 |
| 20260504024509 | 47 | 5 | 0.0 | 0.9 | 0.00 | 0.00 | 0.00 | 65 | 1016.0 |
| 20260504024005 | 47 | 5 | 0.0 | 0.0 | 0.00 | 0.00 | 0.00 | 65 | 1015.9 |
| 20260504023503 | 48 | 5 | 0.0 | 0.0 | 0.00 | 0.00 | 0.00 | 64 | 1016.0 |
| 20260504023006 | 48 | 5 | 0.0 | 0.9 | 0.00 | 0.00 | 0.00 | 63 | 1016.0 |
| 20260504022503 | 48 | 5 | 0.0 | 0.9 | 0.00 | 0.00 | 0.00 | 63 | 1016.0 |
| 20260504022004 | 48 | 5 | 0.0 | 0.0 | 0.00 | 0.00 | 0.00 | 63 | 1016.0 |
| 20260504021512 | 48 | 5 | 0.0 | 0.9 | 0.00 | 0.00 | 0.00 | 63 | 1016.0 |
| 20260504021004 | 48 | 5 | 0.0 | 0.9 | 0.00 | 0.00 | 0.00 | 62 | 1015.9 |
| 20260504020503 | 49 | 5 | 0.0 | 0.0 | 0.00 | 0.00 | 0.00 | 62 | 1015.9 |
| 20260504020020 | 49 | 5 | 0.0 | 0.0 | 0.00 | 0.00 | 0.00 | 61 | 1015.9 |
| 20260504015502 | 49 | 5 | 0.0 | 0.9 | 0.00 | 0.00 | 0.00 | 60 | 1015.8 |
| 20260504015002 | 49 | 5 | 0.0 | 0.9 | 0.00 | 0.00 | 0.00 | 61 | 1015.8 |
| 20260504014504 | 50 | 5 | 0.0 | 0.0 | 0.00 | 0.00 | 0.00 | 60 | 1015.7 |
| 20260504014005 | 50 | 5 | 0.0 | 0.0 | 0.00 | 0.00 | 0.00 | 59 | 1015.7 |
| 20260504013505 | 50 | 5 | 0.0 | 0.0 | 0.00 | 0.00 | 0.00 | 58 | 1015.6 |
| 20260504013009 | 50 | 5 | 0.0 | 0.0 | 0.00 | 0.00 | 0.00 | 58 | 1015.6 |
| 20260504012504 | 50 | 5 | 0.0 | 0.0 | 0.00 | 0.00 | 0.00 | 58 | 1015.6 |
| 20260504012003 | 51 | 5 | 0.0 | 0.9 | 0.00 | 0.00 | 0.00 | 58 | 1015.6 |
| 20260504011508 | 51 | 5 | 0.0 | 0.9 | 0.00 | 0.00 | 0.00 | 58 | 1015.5 |
| 20260504011007 | 51 | 5 | 0.0 | 0.0 | 0.00 | 0.00 | 0.00 | 58 | 1015.5 |
| 20260504010506 | 52 | 9 | 0.0 | 0.0 | 0.00 | 0.00 | 0.00 | 56 | 1015.5 |
| 20260504010015 | 52 | 5 | 0.0 | 0.0 | 0.00 | 0.00 | 0.00 | 55 | 1015.4 |
| 20260504005504 | 52 | 5 | 0.0 | 0.0 | 0.00 | 0.00 | 0.00 | 54 | 1015.4 |
| 20260504005007 | 53 | 5 | 0.0 | 0.0 | 0.00 | 0.00 | 0.00 | 53 | 1015.3 |
| 20260504004524 | 53 | 5 | 0.0 | 0.0 | 0.00 | 0.00 | 0.00 | 53 | 1015.2 |
| 20260504004009 | 53 | 5 | 0.0 | 0.0 | 0.00 | 0.00 | 0.00 | 53 | 1015.2 |
| 20260504003503 | 53 | 5 | 0.0 | 0.0 | 0.00 | 0.00 | 0.00 | 51 | 1015.1 |
| 20260504003004 | 54 | 5 | 0.0 | 0.0 | 0.00 | 0.00 | 0.00 | 51 | 1015.0 |
| 20260504002503 | 54 | 5 | 0.0 | 0.0 | 0.00 | 0.00 | 0.00 | 50 | 1014.8 |
| 20260504002003 | 54 | 5 | 0.0 | 0.0 | 0.00 | 0.00 | 0.00 | 50 | 1014.7 |
| 20260504001507 | 55 | 5 | 0.0 | 0.0 | 0.00 | 0.00 | 0.00 | 49 | 1014.7 |
| 20260504001005 | 55 | 5 | 0.0 | 0.0 | 0.00 | 0.00 | 0.00 | 48 | 1014.7 |
| 20260504000503 | 56 | 13 | 0.0 | 0.0 | 0.00 | 0.00 | 0.00 | 48 | 1014.6 |
| 20260504000012 | 56 | 360 | 0.0 | 0.0 | 0.00 | 0.00 | 0.00 | 46 | 1014.6 |
| 20260503235504 | 56 | 5 | 0.0 | 0.0 | 0.00 | 0.00 | 0.00 | 46 | 1014.7 |
| 20260503235004 | 57 | 5 | 0.0 | 0.0 | 0.00 | 0.00 | 0.00 | 44 | 1014.7 |
| 20260503234516 | 57 | 5 | 0.0 | 0.0 | 0.00 | 0.00 | 0.00 | 44 | 1014.6 |
| 20260503234007 | 57 | 9 | 0.0 | 0.9 | 0.00 | 0.00 | 0.00 | 43 | 1014.6 |
| 20260503233505 | 57 | 5 | 0.0 | 0.9 | 0.00 | 0.00 | 0.00 | 43 | 1014.6 |
| 20260503233021 | 57 | 355 | 0.0 | 1.7 | 0.00 | 0.00 | 0.00 | 43 | 1014.5 |
| 20260503232506 | 57 | 352 | 0.0 | 4.3 | 0.00 | 0.00 | 0.00 | 43 | 1014.5 |